IBE09SH LEMD-GCLP
Flight info
| Callsign | IBE09SH |
|---|---|
| Flight time | 2h 32m |
| Altitude | 33000 |
| Route | VTB DCT INPAN DCT CRISA DCT HIJ DCT SVL DCT CLANA DCT KORNO UN857 TERTO |
| Aircraft | A321/M-SDE3FGHIRWY/LB1 |
Departure
| Time | 2026-05-01 10:02 |
|---|---|
| Airport | Adolfo Suárez Madrid–Barajas Airport (LEMD) |
Arrival
| Time | 2026-05-01 12:34 |
|---|---|
| Airport | Gran Canaria Airport (GCLP) |
| Time | Latitude | Longitude | Altitude | Speed | Heading |
|---|---|---|---|---|---|
| 2026-05-01 09:52 | 40.49003 | -3.58963 | 2022 ft | 0 kts | 269° |
| 2026-05-01 09:52 | 40.49003 | -3.58950 | 2028 ft | 4 kts | 272° |
| 2026-05-01 09:53 | 40.49000 | -3.58916 | 2025 ft | 4 kts | 290° |
| 2026-05-01 09:53 | 40.48988 | -3.58887 | 2030 ft | 4 kts | 326° |
| 2026-05-01 09:53 | 40.48972 | -3.58879 | 2033 ft | 0 kts | 360° |
| 2026-05-01 09:56 | 40.48983 | -3.58879 | 2032 ft | 4 kts | 360° |
| 2026-05-01 09:56 | 40.49033 | -3.58879 | 2026 ft | 10 kts | 359° |
| 2026-05-01 09:57 | 40.49098 | -3.58880 | 2022 ft | 8 kts | 359° |
| 2026-05-01 09:57 | 40.49152 | -3.58880 | 2022 ft | 7 kts | 359° |
| 2026-05-01 09:57 | 40.49202 | -3.58881 | 2022 ft | 8 kts | 359° |
| 2026-05-01 09:57 | 40.49241 | -3.58834 | 2031 ft | 8 kts | 85° |
| 2026-05-01 09:58 | 40.49240 | -3.58762 | 2030 ft | 8 kts | 90° |
| 2026-05-01 09:58 | 40.49240 | -3.58669 | 2022 ft | 11 kts | 90° |
| 2026-05-01 09:58 | 40.49240 | -3.58577 | 2027 ft | 10 kts | 90° |
| 2026-05-01 09:58 | 40.49239 | -3.58480 | 2018 ft | 12 kts | 90° |
| 2026-05-01 09:59 | 40.49239 | -3.58364 | 2011 ft | 14 kts | 90° |
| 2026-05-01 09:59 | 40.49239 | -3.58230 | 2006 ft | 16 kts | 90° |
| 2026-05-01 09:59 | 40.49238 | -3.58077 | 2004 ft | 18 kts | 90° |
| 2026-05-01 09:59 | 40.49241 | -3.57917 | 1998 ft | 19 kts | 88° |
| 2026-05-01 10:00 | 40.49244 | -3.57745 | 1991 ft | 10 kts | 90° |
| 2026-05-01 10:00 | 40.49244 | -3.57640 | 1988 ft | 12 kts | 90° |
| 2026-05-01 10:00 | 40.49269 | -3.57536 | 1987 ft | 12 kts | 63° |
| 2026-05-01 10:00 | 40.49314 | -3.57455 | 1983 ft | 10 kts | 20° |
| 2026-05-01 10:01 | 40.49403 | -3.57452 | 1983 ft | 25 kts | 359° |
| 2026-05-01 10:01 | 40.49821 | -3.57457 | 1985 ft | 92 kts | 0° |
| 2026-05-01 10:01 | 40.50652 | -3.57463 | 1995 ft | 145 kts | 359° |
| 2026-05-01 10:01 | 40.51804 | -3.57472 | 2007 ft | 184 kts | 359° |
| 2026-05-01 10:02 | 40.53084 | -3.57482 | 2594 ft | 183 kts | 0° |
| 2026-05-01 10:02 | 40.54359 | -3.57497 | 3247 ft | 184 kts | 0° |
| 2026-05-01 10:02 | 40.55632 | -3.57792 | 3825 ft | 193 kts | 334° |
| 2026-05-01 10:02 | 40.56656 | -3.59029 | 4075 ft | 212 kts | 299° |
| 2026-05-01 10:03 | 40.57417 | -3.60767 | 4313 ft | 226 kts | 309° |
| 2026-05-01 10:03 | 40.58614 | -3.62181 | 4756 ft | 234 kts | 317° |
| 2026-05-01 10:03 | 40.59848 | -3.63578 | 5367 ft | 235 kts | 320° |
| 2026-05-01 10:03 | 40.61128 | -3.64940 | 5920 ft | 237 kts | 320° |
| 2026-05-01 10:04 | 40.62422 | -3.66293 | 6410 ft | 238 kts | 320° |
| 2026-05-01 10:04 | 40.63725 | -3.67657 | 6866 ft | 240 kts | 319° |
| 2026-05-01 10:04 | 40.64790 | -3.69318 | 7326 ft | 239 kts | 291° |
| 2026-05-01 10:04 | 40.65090 | -3.71425 | 7777 ft | 236 kts | 262° |
| 2026-05-01 10:05 | 40.64548 | -3.73458 | 8089 ft | 240 kts | 233° |
| 2026-05-01 10:05 | 40.63511 | -3.75190 | 8556 ft | 242 kts | 226° |
| 2026-05-01 10:05 | 40.62156 | -3.76469 | 9047 ft | 242 kts | 201° |
| 2026-05-01 10:05 | 40.60500 | -3.76815 | 9509 ft | 245 kts | 176° |
| 2026-05-01 10:06 | 40.59275 | -3.76419 | 9668 ft | 256 kts | 157° |
| 2026-05-01 10:06 | 40.57837 | -3.74910 | 9807 ft | 279 kts | 130° |
| 2026-05-01 10:06 | 40.56646 | -3.72817 | 10134 ft | 293 kts | 129° |
| 2026-05-01 10:06 | 40.55388 | -3.70586 | 10218 ft | 313 kts | 129° |
| 2026-05-01 10:07 | 40.54047 | -3.68220 | 10331 ft | 332 kts | 129° |
| 2026-05-01 10:07 | 40.52628 | -3.65732 | 10469 ft | 349 kts | 129° |
| 2026-05-01 10:07 | 40.51139 | -3.63131 | 10646 ft | 362 kts | 129° |
| 2026-05-01 10:07 | 40.49603 | -3.60479 | 11077 ft | 366 kts | 131° |
| 2026-05-01 10:08 | 40.45598 | -3.56406 | 12041 ft | 368 kts | 157° |
| 2026-05-01 10:08 | 40.43169 | -3.55328 | 12524 ft | 369 kts | 169° |
| 2026-05-01 10:08 | 40.40623 | -3.54885 | 13001 ft | 371 kts | 175° |
| 2026-05-01 10:09 | 40.38035 | -3.54542 | 13476 ft | 375 kts | 175° |
| 2026-05-01 10:09 | 40.35433 | -3.54191 | 13951 ft | 378 kts | 175° |
| 2026-05-01 10:09 | 40.32808 | -3.53832 | 14378 ft | 381 kts | 175° |
| 2026-05-01 10:09 | 40.30165 | -3.53468 | 14810 ft | 383 kts | 175° |
| 2026-05-01 10:10 | 40.27499 | -3.53341 | 15227 ft | 384 kts | 187° |
| 2026-05-01 10:10 | 40.24926 | -3.54209 | 15637 ft | 384 kts | 205° |
| 2026-05-01 10:10 | 40.20291 | -3.57725 | 16447 ft | 387 kts | 212° |
| 2026-05-01 10:11 | 40.17985 | -3.59554 | 16847 ft | 389 kts | 212° |
| 2026-05-01 10:11 | 40.15664 | -3.61398 | 17215 ft | 391 kts | 212° |
| 2026-05-01 10:11 | 40.13335 | -3.63248 | 17575 ft | 393 kts | 212° |
| 2026-05-01 10:11 | 40.10994 | -3.65100 | 17941 ft | 394 kts | 212° |
| 2026-05-01 10:12 | 40.08672 | -3.66933 | 18278 ft | 396 kts | 212° |
| 2026-05-01 10:12 | 40.06275 | -3.68822 | 18608 ft | 398 kts | 212° |
| 2026-05-01 10:12 | 40.01538 | -3.72546 | 19217 ft | 402 kts | 212° |
| 2026-05-01 10:13 | 39.99137 | -3.74431 | 19518 ft | 404 kts | 212° |
| 2026-05-01 10:13 | 39.96728 | -3.76322 | 19835 ft | 405 kts | 212° |
| 2026-05-01 10:13 | 39.94306 | -3.78223 | 20146 ft | 407 kts | 212° |
| 2026-05-01 10:14 | 39.89431 | -3.82034 | 20792 ft | 410 kts | 212° |
| 2026-05-01 10:14 | 39.86981 | -3.83947 | 21115 ft | 412 kts | 212° |
| 2026-05-01 10:14 | 39.84518 | -3.85874 | 21432 ft | 414 kts | 212° |
| 2026-05-01 10:14 | 39.82045 | -3.87808 | 21737 ft | 416 kts | 212° |
| 2026-05-01 10:15 | 39.79561 | -3.89751 | 22060 ft | 418 kts | 212° |
| 2026-05-01 10:15 | 39.77064 | -3.91701 | 22376 ft | 420 kts | 212° |
| 2026-05-01 10:15 | 39.74551 | -3.93659 | 22683 ft | 421 kts | 212° |
| 2026-05-01 10:15 | 39.72034 | -3.95617 | 22999 ft | 423 kts | 212° |
| 2026-05-01 10:16 | 39.69503 | -3.97585 | 23289 ft | 425 kts | 212° |
| 2026-05-01 10:16 | 39.66960 | -3.99562 | 23587 ft | 427 kts | 212° |
| 2026-05-01 10:16 | 39.61837 | -4.03533 | 24102 ft | 431 kts | 212° |
| 2026-05-01 10:17 | 39.59261 | -4.05529 | 24369 ft | 432 kts | 212° |
| 2026-05-01 10:17 | 39.54085 | -4.09537 | 24880 ft | 435 kts | 212° |
| 2026-05-01 10:17 | 39.51481 | -4.11554 | 25137 ft | 436 kts | 212° |
| 2026-05-01 10:18 | 39.46252 | -4.15592 | 25626 ft | 439 kts | 212° |
| 2026-05-01 10:18 | 39.43618 | -4.17621 | 25885 ft | 441 kts | 212° |
| 2026-05-01 10:18 | 39.40981 | -4.19651 | 26128 ft | 442 kts | 212° |
| 2026-05-01 10:19 | 39.38332 | -4.21686 | 26364 ft | 443 kts | 212° |
| 2026-05-01 10:19 | 39.35674 | -4.23727 | 26600 ft | 445 kts | 212° |
| 2026-05-01 10:19 | 39.33013 | -4.25769 | 26837 ft | 446 kts | 212° |
| 2026-05-01 10:20 | 39.27672 | -4.29862 | 27254 ft | 448 kts | 212° |
| 2026-05-01 10:20 | 39.24988 | -4.31921 | 27445 ft | 449 kts | 212° |
| 2026-05-01 10:20 | 39.22303 | -4.33979 | 27634 ft | 450 kts | 212° |
| 2026-05-01 10:20 | 39.19609 | -4.36039 | 27811 ft | 450 kts | 212° |
| 2026-05-01 10:21 | 39.16915 | -4.38096 | 28054 ft | 449 kts | 212° |
| 2026-05-01 10:21 | 39.11581 | -4.42156 | 28568 ft | 447 kts | 212° |
| 2026-05-01 10:21 | 39.08905 | -4.44196 | 28803 ft | 447 kts | 212° |
| 2026-05-01 10:22 | 39.03569 | -4.48262 | 29283 ft | 445 kts | 213° |
| 2026-05-01 10:22 | 38.98253 | -4.52309 | 29768 ft | 443 kts | 212° |
| 2026-05-01 10:23 | 38.95598 | -4.54331 | 29987 ft | 443 kts | 213° |
| 2026-05-01 10:23 | 38.90368 | -4.58500 | 30359 ft | 442 kts | 214° |
| 2026-05-01 10:23 | 38.87780 | -4.60637 | 30537 ft | 442 kts | 215° |
| 2026-05-01 10:24 | 38.82625 | -4.64914 | 30889 ft | 441 kts | 214° |
| 2026-05-01 10:24 | 38.77454 | -4.69132 | 31246 ft | 440 kts | 214° |
| 2026-05-01 10:25 | 38.72281 | -4.73323 | 31611 ft | 439 kts | 214° |
| 2026-05-01 10:25 | 38.67125 | -4.77507 | 31971 ft | 439 kts | 214° |
| 2026-05-01 10:26 | 38.64547 | -4.79599 | 32152 ft | 438 kts | 214° |
| 2026-05-01 10:26 | 38.61975 | -4.81684 | 32324 ft | 438 kts | 214° |
| 2026-05-01 10:26 | 38.56832 | -4.85843 | 32691 ft | 437 kts | 214° |
| 2026-05-01 10:27 | 38.51700 | -4.89983 | 33059 ft | 435 kts | 214° |
| 2026-05-01 10:28 | 38.44041 | -4.96132 | 33159 ft | 432 kts | 214° |
| 2026-05-01 10:28 | 38.36458 | -5.02219 | 33154 ft | 431 kts | 214° |
| 2026-05-01 10:29 | 38.28847 | -5.08315 | 33159 ft | 431 kts | 214° |
| 2026-05-01 10:30 | 38.18704 | -5.16425 | 33158 ft | 430 kts | 214° |
| 2026-05-01 10:31 | 38.08550 | -5.24503 | 33164 ft | 430 kts | 214° |
| 2026-05-01 10:32 | 38.00923 | -5.30551 | 33133 ft | 433 kts | 214° |
| 2026-05-01 10:33 | 37.90665 | -5.38667 | 33135 ft | 436 kts | 214° |
| 2026-05-01 10:34 | 37.82924 | -5.44770 | 33142 ft | 437 kts | 214° |
| 2026-05-01 10:34 | 37.77750 | -5.48846 | 33150 ft | 438 kts | 214° |
| 2026-05-01 10:35 | 37.69988 | -5.54947 | 33158 ft | 438 kts | 214° |
| 2026-05-01 10:35 | 37.64815 | -5.59010 | 33161 ft | 438 kts | 214° |
| 2026-05-01 10:36 | 37.57047 | -5.65087 | 33167 ft | 438 kts | 214° |
| 2026-05-01 10:37 | 37.51873 | -5.69120 | 33170 ft | 437 kts | 214° |
| 2026-05-01 10:37 | 37.44116 | -5.75168 | 33178 ft | 437 kts | 214° |
| 2026-05-01 10:38 | 37.39361 | -5.79843 | 33177 ft | 434 kts | 223° |
| 2026-05-01 10:38 | 37.34788 | -5.84717 | 33177 ft | 434 kts | 222° |
| 2026-05-01 10:39 | 37.30182 | -5.89612 | 33182 ft | 434 kts | 222° |
| 2026-05-01 10:39 | 37.25573 | -5.94511 | 33178 ft | 434 kts | 222° |
| 2026-05-01 10:40 | 37.20965 | -5.99395 | 33179 ft | 434 kts | 222° |
| 2026-05-01 10:40 | 37.16356 | -6.04266 | 33173 ft | 433 kts | 222° |
| 2026-05-01 10:41 | 37.11749 | -6.09134 | 33170 ft | 433 kts | 222° |
| 2026-05-01 10:42 | 37.04837 | -6.16428 | 33172 ft | 433 kts | 222° |
| 2026-05-01 10:42 | 37.00224 | -6.21286 | 33176 ft | 433 kts | 222° |
| 2026-05-01 10:43 | 36.95607 | -6.26129 | 33176 ft | 433 kts | 221° |
| 2026-05-01 10:43 | 36.90995 | -6.30956 | 33177 ft | 433 kts | 221° |
| 2026-05-01 10:44 | 36.86386 | -6.35784 | 33192 ft | 432 kts | 221° |
| 2026-05-01 10:44 | 36.81802 | -6.40574 | 33199 ft | 432 kts | 221° |
| 2026-05-01 10:45 | 36.77199 | -6.45393 | 33199 ft | 432 kts | 221° |
| 2026-05-01 10:45 | 36.72586 | -6.50198 | 33201 ft | 432 kts | 221° |
| 2026-05-01 10:46 | 36.67968 | -6.54992 | 33203 ft | 432 kts | 221° |
| 2026-05-01 10:46 | 36.63352 | -6.59787 | 33203 ft | 432 kts | 221° |
| 2026-05-01 10:47 | 36.58744 | -6.64569 | 33199 ft | 431 kts | 221° |
| 2026-05-01 10:47 | 36.54136 | -6.69336 | 33196 ft | 431 kts | 221° |
| 2026-05-01 10:48 | 36.49525 | -6.74094 | 33187 ft | 430 kts | 221° |
| 2026-05-01 10:48 | 36.44920 | -6.78845 | 33193 ft | 430 kts | 221° |
| 2026-05-01 10:49 | 36.40316 | -6.83590 | 33190 ft | 430 kts | 221° |
| 2026-05-01 10:49 | 36.35709 | -6.88328 | 33193 ft | 430 kts | 221° |
| 2026-05-01 10:50 | 36.31878 | -6.92262 | 33195 ft | 430 kts | 221° |
| 2026-05-01 10:50 | 36.27267 | -6.96987 | 33202 ft | 430 kts | 221° |
| 2026-05-01 10:51 | 36.22656 | -7.01714 | 33206 ft | 430 kts | 221° |
| 2026-05-01 10:51 | 36.18040 | -7.06431 | 33206 ft | 430 kts | 220° |
| 2026-05-01 10:52 | 36.13428 | -7.11134 | 33206 ft | 429 kts | 220° |
| 2026-05-01 10:52 | 36.08819 | -7.15825 | 33206 ft | 429 kts | 220° |
| 2026-05-01 10:53 | 36.04216 | -7.20512 | 33201 ft | 429 kts | 220° |
| 2026-05-01 10:53 | 35.99608 | -7.25192 | 33206 ft | 429 kts | 220° |
| 2026-05-01 10:54 | 35.95001 | -7.29871 | 33205 ft | 429 kts | 220° |
| 2026-05-01 10:54 | 35.90390 | -7.34542 | 33208 ft | 429 kts | 220° |
| 2026-05-01 10:55 | 35.85800 | -7.39167 | 33206 ft | 429 kts | 220° |
| 2026-05-01 10:55 | 35.81180 | -7.43821 | 33214 ft | 429 kts | 220° |
| 2026-05-01 10:56 | 35.76552 | -7.48461 | 33207 ft | 429 kts | 220° |
| 2026-05-01 10:56 | 35.71919 | -7.53077 | 33207 ft | 428 kts | 220° |
| 2026-05-01 10:57 | 35.67280 | -7.57685 | 33207 ft | 429 kts | 220° |
| 2026-05-01 10:57 | 35.62644 | -7.62296 | 33208 ft | 429 kts | 220° |
| 2026-05-01 10:58 | 35.58010 | -7.66904 | 33201 ft | 429 kts | 219° |
| 2026-05-01 10:58 | 35.53363 | -7.71506 | 33206 ft | 429 kts | 219° |
| 2026-05-01 10:59 | 35.48711 | -7.76097 | 33204 ft | 429 kts | 219° |
| 2026-05-01 10:59 | 35.44058 | -7.80691 | 33207 ft | 429 kts | 219° |
| 2026-05-01 11:00 | 35.39406 | -7.85295 | 33210 ft | 430 kts | 219° |
| 2026-05-01 11:00 | 35.34770 | -7.89931 | 33212 ft | 430 kts | 220° |
| 2026-05-01 11:01 | 35.30138 | -7.94576 | 33214 ft | 430 kts | 219° |
| 2026-05-01 11:01 | 35.25499 | -7.99211 | 33216 ft | 431 kts | 219° |
| 2026-05-01 11:02 | 35.20879 | -8.03813 | 33214 ft | 431 kts | 219° |
| 2026-05-01 11:02 | 35.16229 | -8.08431 | 33216 ft | 431 kts | 219° |
| 2026-05-01 11:03 | 35.11570 | -8.13060 | 33213 ft | 431 kts | 219° |
| 2026-05-01 11:03 | 35.06913 | -8.17680 | 33217 ft | 432 kts | 219° |
| 2026-05-01 11:04 | 35.02247 | -8.22295 | 33209 ft | 432 kts | 219° |
| 2026-05-01 11:04 | 34.97581 | -8.26905 | 33212 ft | 431 kts | 219° |
| 2026-05-01 11:05 | 34.92914 | -8.31508 | 33209 ft | 432 kts | 219° |
| 2026-05-01 11:05 | 34.88238 | -8.36112 | 33205 ft | 432 kts | 219° |
| 2026-05-01 11:06 | 34.83557 | -8.40704 | 33206 ft | 432 kts | 219° |
| 2026-05-01 11:06 | 34.78880 | -8.45302 | 33206 ft | 432 kts | 219° |
| 2026-05-01 11:07 | 34.71861 | -8.52195 | 33199 ft | 432 kts | 219° |
| 2026-05-01 11:07 | 34.67172 | -8.56779 | 33203 ft | 433 kts | 219° |
| 2026-05-01 11:08 | 34.62474 | -8.61357 | 33201 ft | 433 kts | 219° |
| 2026-05-01 11:09 | 34.55434 | -8.68228 | 33206 ft | 433 kts | 219° |
| 2026-05-01 11:09 | 34.50773 | -8.72777 | 33202 ft | 433 kts | 219° |
| 2026-05-01 11:10 | 34.43718 | -8.79631 | 33197 ft | 433 kts | 219° |
| 2026-05-01 11:10 | 34.39003 | -8.84176 | 33198 ft | 433 kts | 219° |
| 2026-05-01 11:11 | 34.34280 | -8.88705 | 33197 ft | 433 kts | 219° |
| 2026-05-01 11:11 | 34.29558 | -8.93220 | 33200 ft | 433 kts | 219° |
| 2026-05-01 11:12 | 34.24836 | -8.97740 | 33197 ft | 433 kts | 219° |
| 2026-05-01 11:12 | 34.20116 | -9.02264 | 33202 ft | 433 kts | 219° |
| 2026-05-01 11:13 | 34.15396 | -9.06776 | 33197 ft | 433 kts | 219° |
| 2026-05-01 11:13 | 34.10678 | -9.11278 | 33193 ft | 432 kts | 219° |
| 2026-05-01 11:14 | 34.05958 | -9.15775 | 33190 ft | 432 kts | 220° |
| 2026-05-01 11:14 | 34.01236 | -9.20268 | 33195 ft | 433 kts | 220° |
| 2026-05-01 11:15 | 33.96513 | -9.24758 | 33185 ft | 432 kts | 220° |
| 2026-05-01 11:15 | 33.91817 | -9.29217 | 33192 ft | 432 kts | 220° |
| 2026-05-01 11:16 | 33.87084 | -9.33698 | 33191 ft | 433 kts | 220° |
| 2026-05-01 11:16 | 33.82351 | -9.38170 | 33197 ft | 433 kts | 220° |
| 2026-05-01 11:17 | 33.77620 | -9.42647 | 33189 ft | 433 kts | 220° |
| 2026-05-01 11:17 | 33.72881 | -9.47111 | 33192 ft | 433 kts | 220° |
| 2026-05-01 11:18 | 33.68140 | -9.51569 | 33185 ft | 433 kts | 220° |
| 2026-05-01 11:18 | 33.63403 | -9.56025 | 33192 ft | 433 kts | 220° |
| 2026-05-01 11:19 | 33.58663 | -9.60476 | 33191 ft | 433 kts | 220° |
| 2026-05-01 11:19 | 33.53920 | -9.64927 | 33188 ft | 433 kts | 219° |
| 2026-05-01 11:20 | 33.49175 | -9.69375 | 33190 ft | 433 kts | 220° |
| 2026-05-01 11:20 | 33.44429 | -9.73814 | 33191 ft | 433 kts | 220° |
| 2026-05-01 11:21 | 33.39679 | -9.78247 | 33187 ft | 432 kts | 220° |
| 2026-05-01 11:21 | 33.34931 | -9.82665 | 33197 ft | 432 kts | 220° |
| 2026-05-01 11:22 | 33.30190 | -9.87083 | 33191 ft | 432 kts | 220° |
| 2026-05-01 11:22 | 33.25474 | -9.91466 | 33190 ft | 432 kts | 220° |
| 2026-05-01 11:23 | 33.20730 | -9.95874 | 33189 ft | 432 kts | 220° |
| 2026-05-01 11:23 | 33.15986 | -10.00282 | 33192 ft | 432 kts | 220° |
| 2026-05-01 11:24 | 33.11232 | -10.04685 | 33189 ft | 432 kts | 220° |
| 2026-05-01 11:25 | 33.04098 | -10.11262 | 33196 ft | 432 kts | 220° |
| 2026-05-01 11:25 | 32.96964 | -10.17832 | 33194 ft | 432 kts | 220° |
| 2026-05-01 11:26 | 32.89837 | -10.24401 | 33185 ft | 432 kts | 220° |
| 2026-05-01 11:27 | 32.85080 | -10.28758 | 33196 ft | 432 kts | 220° |
| 2026-05-01 11:27 | 32.80322 | -10.33109 | 33183 ft | 431 kts | 220° |
| 2026-05-01 11:28 | 32.75570 | -10.37462 | 33182 ft | 431 kts | 220° |
| 2026-05-01 11:28 | 32.70817 | -10.41804 | 33170 ft | 431 kts | 220° |
| 2026-05-01 11:29 | 32.63687 | -10.48313 | 33171 ft | 431 kts | 220° |
| 2026-05-01 11:30 | 32.56543 | -10.54812 | 33176 ft | 432 kts | 220° |
| 2026-05-01 11:30 | 32.51772 | -10.59144 | 33171 ft | 432 kts | 220° |
| 2026-05-01 11:31 | 32.46999 | -10.63475 | 33177 ft | 432 kts | 220° |
| 2026-05-01 11:31 | 32.42260 | -10.67778 | 33175 ft | 432 kts | 220° |
| 2026-05-01 11:32 | 32.37478 | -10.72097 | 33183 ft | 432 kts | 220° |
| 2026-05-01 11:32 | 32.32698 | -10.76411 | 33177 ft | 432 kts | 220° |
| 2026-05-01 11:33 | 32.27915 | -10.80730 | 33180 ft | 433 kts | 220° |
| 2026-05-01 11:33 | 32.23128 | -10.85048 | 33175 ft | 433 kts | 220° |
| 2026-05-01 11:34 | 32.18338 | -10.89354 | 33181 ft | 433 kts | 220° |
| 2026-05-01 11:34 | 32.13541 | -10.93659 | 33178 ft | 433 kts | 220° |
| 2026-05-01 11:35 | 32.08744 | -10.97966 | 33180 ft | 433 kts | 220° |
| 2026-05-01 11:35 | 32.03942 | -11.02275 | 33174 ft | 434 kts | 220° |
| 2026-05-01 11:36 | 31.99129 | -11.06581 | 33174 ft | 434 kts | 220° |
| 2026-05-01 11:36 | 31.95124 | -11.10155 | 33170 ft | 435 kts | 221° |
| 2026-05-01 11:37 | 31.90304 | -11.14461 | 33169 ft | 435 kts | 221° |
| 2026-05-01 11:37 | 31.85474 | -11.18778 | 33165 ft | 436 kts | 221° |
| 2026-05-01 11:38 | 31.80635 | -11.23091 | 33172 ft | 437 kts | 221° |
| 2026-05-01 11:38 | 31.75784 | -11.27407 | 33163 ft | 437 kts | 221° |
| 2026-05-01 11:39 | 31.70930 | -11.31717 | 32963 ft | 436 kts | 221° |
| 2026-05-01 11:39 | 31.68520 | -11.33861 | 33152 ft | 434 kts | 221° |
| 2026-05-01 11:39 | 31.66108 | -11.36006 | 33187 ft | 436 kts | 221° |
| 2026-05-01 11:40 | 31.61281 | -11.40316 | 33194 ft | 435 kts | 221° |
| 2026-05-01 11:40 | 31.56466 | -11.44615 | 33195 ft | 435 kts | 221° |
| 2026-05-01 11:41 | 31.51644 | -11.48898 | 33197 ft | 435 kts | 221° |
| 2026-05-01 11:41 | 31.46827 | -11.53168 | 33189 ft | 434 kts | 221° |
| 2026-05-01 11:42 | 31.41999 | -11.57432 | 33184 ft | 434 kts | 221° |
| 2026-05-01 11:42 | 31.37175 | -11.61702 | 33180 ft | 435 kts | 221° |
| 2026-05-01 11:43 | 31.32379 | -11.65937 | 33183 ft | 435 kts | 221° |
| 2026-05-01 11:43 | 31.27544 | -11.70206 | 33185 ft | 435 kts | 221° |
| 2026-05-01 11:44 | 31.20283 | -11.76598 | 33185 ft | 436 kts | 221° |
| 2026-05-01 11:44 | 31.15437 | -11.80856 | 33187 ft | 436 kts | 220° |
| 2026-05-01 11:45 | 31.10582 | -11.85108 | 33182 ft | 436 kts | 220° |
| 2026-05-01 11:45 | 31.05728 | -11.89363 | 33185 ft | 437 kts | 220° |
| 2026-05-01 11:46 | 31.00873 | -11.93623 | 33188 ft | 437 kts | 220° |
| 2026-05-01 11:46 | 30.96016 | -11.97879 | 33186 ft | 437 kts | 220° |
| 2026-05-01 11:47 | 30.91148 | -12.02126 | 33191 ft | 437 kts | 220° |
| 2026-05-01 11:47 | 30.86272 | -12.06370 | 33187 ft | 438 kts | 220° |
| 2026-05-01 11:48 | 30.81399 | -12.10615 | 33200 ft | 438 kts | 220° |
| 2026-05-01 11:48 | 30.76557 | -12.14829 | 33197 ft | 438 kts | 220° |
| 2026-05-01 11:49 | 30.71677 | -12.19075 | 33191 ft | 438 kts | 220° |
| 2026-05-01 11:49 | 30.66792 | -12.23310 | 33195 ft | 438 kts | 220° |
| 2026-05-01 11:50 | 30.61897 | -12.27546 | 33198 ft | 439 kts | 220° |
| 2026-05-01 11:50 | 30.57001 | -12.31788 | 33195 ft | 439 kts | 220° |
| 2026-05-01 11:51 | 30.52108 | -12.36024 | 33197 ft | 439 kts | 220° |
| 2026-05-01 11:51 | 30.47204 | -12.40251 | 33204 ft | 439 kts | 220° |
| 2026-05-01 11:52 | 30.42296 | -12.44471 | 33199 ft | 440 kts | 220° |
| 2026-05-01 11:52 | 30.37381 | -12.48689 | 33200 ft | 440 kts | 219° |
| 2026-05-01 11:53 | 30.32454 | -12.52893 | 33195 ft | 440 kts | 219° |
| 2026-05-01 11:53 | 30.27567 | -12.57074 | 33198 ft | 440 kts | 219° |
| 2026-05-01 11:54 | 30.22609 | -12.61313 | 33197 ft | 440 kts | 219° |
| 2026-05-01 11:54 | 30.17685 | -12.65519 | 33198 ft | 440 kts | 219° |
| 2026-05-01 11:55 | 30.12783 | -12.69703 | 33205 ft | 441 kts | 219° |
| 2026-05-01 11:55 | 30.07852 | -12.73907 | 33204 ft | 441 kts | 219° |
| 2026-05-01 11:56 | 30.02920 | -12.78120 | 33206 ft | 441 kts | 219° |
| 2026-05-01 11:56 | 29.97992 | -12.82333 | 33209 ft | 441 kts | 219° |
| 2026-05-01 11:57 | 29.93061 | -12.86542 | 33206 ft | 441 kts | 219° |
| 2026-05-01 11:57 | 29.88111 | -12.90745 | 33208 ft | 441 kts | 219° |
| 2026-05-01 11:58 | 29.83167 | -12.94944 | 33208 ft | 441 kts | 219° |
| 2026-05-01 11:59 | 29.75752 | -13.01249 | 33210 ft | 442 kts | 219° |
| 2026-05-01 11:59 | 29.70799 | -13.05446 | 33211 ft | 442 kts | 219° |
| 2026-05-01 12:00 | 29.63375 | -13.11733 | 33213 ft | 442 kts | 219° |
| 2026-05-01 12:01 | 29.55984 | -13.17988 | 33210 ft | 442 kts | 219° |
| 2026-05-01 12:01 | 29.50991 | -13.22195 | 33215 ft | 442 kts | 219° |
| 2026-05-01 12:02 | 29.46056 | -13.26346 | 33214 ft | 442 kts | 218° |
| 2026-05-01 12:02 | 29.41088 | -13.30519 | 33217 ft | 442 kts | 219° |
| 2026-05-01 12:03 | 29.36123 | -13.34694 | 33212 ft | 443 kts | 218° |
| 2026-05-01 12:03 | 29.31158 | -13.38867 | 33209 ft | 443 kts | 218° |
| 2026-05-01 12:04 | 29.26187 | -13.43030 | 33211 ft | 443 kts | 218° |
| 2026-05-01 12:04 | 29.21211 | -13.47190 | 33209 ft | 443 kts | 218° |
| 2026-05-01 12:05 | 29.16244 | -13.51362 | 33201 ft | 442 kts | 220° |
| 2026-05-01 12:05 | 29.09221 | -13.58177 | 33211 ft | 441 kts | 224° |
| 2026-05-01 12:06 | 29.04657 | -13.62866 | 33206 ft | 441 kts | 224° |
| 2026-05-01 12:06 | 29.00032 | -13.67484 | 33198 ft | 442 kts | 223° |
| 2026-05-01 12:07 | 28.95400 | -13.72021 | 33204 ft | 442 kts | 223° |
| 2026-05-01 12:07 | 28.90727 | -13.76591 | 33064 ft | 442 kts | 223° |
| 2026-05-01 12:08 | 28.88399 | -13.78879 | 32763 ft | 441 kts | 223° |
| 2026-05-01 12:08 | 28.86077 | -13.81168 | 32485 ft | 441 kts | 223° |
| 2026-05-01 12:08 | 28.83753 | -13.83456 | 32209 ft | 442 kts | 223° |
| 2026-05-01 12:08 | 28.81419 | -13.85748 | 31934 ft | 442 kts | 223° |
| 2026-05-01 12:09 | 28.79085 | -13.88036 | 31665 ft | 443 kts | 222° |
| 2026-05-01 12:09 | 28.76749 | -13.90327 | 31397 ft | 443 kts | 222° |
| 2026-05-01 12:09 | 28.74412 | -13.92620 | 31132 ft | 444 kts | 222° |
| 2026-05-01 12:09 | 28.72070 | -13.94917 | 30868 ft | 444 kts | 222° |
| 2026-05-01 12:10 | 28.69725 | -13.97214 | 30609 ft | 445 kts | 222° |
| 2026-05-01 12:10 | 28.65022 | -14.01808 | 29970 ft | 446 kts | 222° |
| 2026-05-01 12:10 | 28.62664 | -14.04111 | 29616 ft | 446 kts | 222° |
| 2026-05-01 12:11 | 28.57973 | -14.08679 | 28917 ft | 440 kts | 222° |
| 2026-05-01 12:11 | 28.55661 | -14.10931 | 28570 ft | 437 kts | 222° |
| 2026-05-01 12:11 | 28.53361 | -14.13176 | 28233 ft | 434 kts | 222° |
| 2026-05-01 12:12 | 28.51077 | -14.15405 | 27897 ft | 432 kts | 222° |
| 2026-05-01 12:12 | 28.48805 | -14.17621 | 27567 ft | 429 kts | 222° |
| 2026-05-01 12:12 | 28.46539 | -14.19825 | 27243 ft | 427 kts | 222° |
| 2026-05-01 12:12 | 28.44288 | -14.22010 | 26918 ft | 425 kts | 222° |
| 2026-05-01 12:13 | 28.42046 | -14.24186 | 26600 ft | 423 kts | 222° |
| 2026-05-01 12:13 | 28.39816 | -14.26351 | 26284 ft | 421 kts | 222° |
| 2026-05-01 12:13 | 28.37623 | -14.28479 | 25977 ft | 419 kts | 222° |
| 2026-05-01 12:13 | 28.35417 | -14.30617 | 25670 ft | 416 kts | 221° |
| 2026-05-01 12:14 | 28.33217 | -14.32749 | 25363 ft | 414 kts | 221° |
| 2026-05-01 12:14 | 28.31031 | -14.34867 | 25056 ft | 412 kts | 221° |
| 2026-05-01 12:14 | 28.28849 | -14.36977 | 24756 ft | 410 kts | 221° |
| 2026-05-01 12:14 | 28.26688 | -14.39065 | 24409 ft | 403 kts | 221° |
| 2026-05-01 12:15 | 28.24577 | -14.41102 | 24075 ft | 393 kts | 221° |
| 2026-05-01 12:15 | 28.22522 | -14.43085 | 23733 ft | 383 kts | 221° |
| 2026-05-01 12:15 | 28.20517 | -14.45021 | 23330 ft | 373 kts | 221° |
| 2026-05-01 12:15 | 28.18566 | -14.46906 | 22939 ft | 364 kts | 221° |
| 2026-05-01 12:16 | 28.16664 | -14.48744 | 22557 ft | 355 kts | 221° |
| 2026-05-01 12:16 | 28.14803 | -14.50541 | 22174 ft | 348 kts | 221° |
| 2026-05-01 12:16 | 28.12976 | -14.52300 | 21792 ft | 341 kts | 221° |
| 2026-05-01 12:16 | 28.11204 | -14.54006 | 21421 ft | 339 kts | 221° |
| 2026-05-01 12:17 | 28.09360 | -14.55782 | 21051 ft | 353 kts | 221° |
| 2026-05-01 12:17 | 28.07489 | -14.57585 | 20684 ft | 352 kts | 221° |
| 2026-05-01 12:17 | 28.05631 | -14.59378 | 20322 ft | 349 kts | 220° |
| 2026-05-01 12:17 | 28.03787 | -14.61154 | 19970 ft | 347 kts | 220° |
| 2026-05-01 12:18 | 28.01954 | -14.62918 | 19622 ft | 345 kts | 220° |
| 2026-05-01 12:18 | 28.00141 | -14.64678 | 19269 ft | 343 kts | 223° |
| 2026-05-01 12:18 | 27.98470 | -14.66589 | 18930 ft | 341 kts | 225° |
| 2026-05-01 12:18 | 27.96833 | -14.68528 | 18589 ft | 339 kts | 225° |
| 2026-05-01 12:19 | 27.95207 | -14.70454 | 18215 ft | 338 kts | 225° |
| 2026-05-01 12:19 | 27.93587 | -14.72373 | 17829 ft | 336 kts | 225° |
| 2026-05-01 12:19 | 27.91975 | -14.74281 | 17450 ft | 335 kts | 225° |
| 2026-05-01 12:19 | 27.90408 | -14.76223 | 17066 ft | 334 kts | 233° |
| 2026-05-01 12:20 | 27.89123 | -14.78409 | 16693 ft | 333 kts | 236° |
| 2026-05-01 12:20 | 27.87859 | -14.80604 | 16323 ft | 332 kts | 236° |
| 2026-05-01 12:20 | 27.86603 | -14.82788 | 15961 ft | 331 kts | 236° |
| 2026-05-01 12:20 | 27.85352 | -14.84966 | 15541 ft | 330 kts | 236° |
| 2026-05-01 12:21 | 27.84106 | -14.87134 | 15092 ft | 328 kts | 236° |
| 2026-05-01 12:21 | 27.82867 | -14.89289 | 14647 ft | 326 kts | 236° |
| 2026-05-01 12:21 | 27.81646 | -14.91404 | 14218 ft | 325 kts | 236° |
| 2026-05-01 12:21 | 27.80413 | -14.93536 | 13753 ft | 323 kts | 237° |
| 2026-05-01 12:22 | 27.79189 | -14.95656 | 13263 ft | 321 kts | 237° |
| 2026-05-01 12:22 | 27.78365 | -14.97085 | 12945 ft | 320 kts | 237° |
| 2026-05-01 12:22 | 27.76762 | -14.99863 | 12318 ft | 317 kts | 237° |
| 2026-05-01 12:22 | 27.75562 | -15.01945 | 11851 ft | 315 kts | 237° |
| 2026-05-01 12:23 | 27.74367 | -15.04012 | 11370 ft | 313 kts | 237° |
| 2026-05-01 12:23 | 27.73176 | -15.06067 | 10895 ft | 312 kts | 237° |
| 2026-05-01 12:23 | 27.71994 | -15.08108 | 10426 ft | 310 kts | 237° |
| 2026-05-01 12:23 | 27.70816 | -15.10142 | 9951 ft | 309 kts | 237° |
| 2026-05-01 12:24 | 27.69642 | -15.12169 | 9373 ft | 309 kts | 237° |
| 2026-05-01 12:24 | 27.68466 | -15.14202 | 8782 ft | 310 kts | 237° |
| 2026-05-01 12:24 | 27.67286 | -15.16243 | 8210 ft | 311 kts | 237° |
| 2026-05-01 12:24 | 27.66106 | -15.18281 | 7648 ft | 311 kts | 236° |
| 2026-05-01 12:25 | 27.64920 | -15.20326 | 7112 ft | 311 kts | 236° |
| 2026-05-01 12:25 | 27.62960 | -15.23700 | 6307 ft | 308 kts | 236° |
| 2026-05-01 12:25 | 27.61790 | -15.25715 | 5807 ft | 306 kts | 236° |
| 2026-05-01 12:26 | 27.60739 | -15.27754 | 5589 ft | 295 kts | 248° |
| 2026-05-01 12:26 | 27.60806 | -15.32085 | 5321 ft | 270 kts | 284° |
| 2026-05-01 12:26 | 27.61276 | -15.34092 | 5196 ft | 258 kts | 284° |
| 2026-05-01 12:27 | 27.61729 | -15.36035 | 5067 ft | 255 kts | 284° |
| 2026-05-01 12:27 | 27.62629 | -15.39890 | 4862 ft | 250 kts | 284° |
| 2026-05-01 12:28 | 27.64325 | -15.43083 | 4684 ft | 231 kts | 315° |
| 2026-05-01 12:28 | 27.65454 | -15.44316 | 4601 ft | 222 kts | 316° |
| 2026-05-01 12:28 | 27.67677 | -15.46700 | 4462 ft | 216 kts | 316° |
| 2026-05-01 12:29 | 27.68816 | -15.47700 | 4401 ft | 202 kts | 333° |
| 2026-05-01 12:29 | 27.70127 | -15.48192 | 4376 ft | 198 kts | 353° |
| 2026-05-01 12:29 | 27.72779 | -15.47663 | 4025 ft | 194 kts | 22° |
| 2026-05-01 12:30 | 27.75258 | -15.46569 | 3537 ft | 191 kts | 22° |
| 2026-05-01 12:30 | 27.76493 | -15.46025 | 3292 ft | 190 kts | 21° |
| 2026-05-01 12:30 | 27.77718 | -15.45485 | 3037 ft | 188 kts | 21° |
| 2026-05-01 12:31 | 27.78935 | -15.44949 | 2784 ft | 187 kts | 21° |
| 2026-05-01 12:31 | 27.80141 | -15.44418 | 2548 ft | 186 kts | 21° |
| 2026-05-01 12:31 | 27.81357 | -15.43882 | 2293 ft | 189 kts | 21° |
| 2026-05-01 12:31 | 27.82576 | -15.43345 | 2044 ft | 187 kts | 21° |
| 2026-05-01 12:32 | 27.83781 | -15.42813 | 1809 ft | 183 kts | 21° |
| 2026-05-01 12:32 | 27.86018 | -15.41827 | 1327 ft | 163 kts | 22° |
| 2026-05-01 12:32 | 27.87060 | -15.41367 | 1113 ft | 160 kts | 23° |
| 2026-05-01 12:33 | 27.88089 | -15.40913 | 901 ft | 157 kts | 23° |
| 2026-05-01 12:33 | 27.89104 | -15.40464 | 709 ft | 156 kts | 23° |
| 2026-05-01 12:33 | 27.90102 | -15.40024 | 503 ft | 151 kts | 24° |
| 2026-05-01 12:33 | 27.91076 | -15.39591 | 312 ft | 149 kts | 24° |
| 2026-05-01 12:34 | 27.92037 | -15.39169 | 114 ft | 147 kts | 24° |
| 2026-05-01 12:34 | 27.92946 | -15.38763 | 60 ft | 125 kts | 21° |
| 2026-05-01 12:34 | 27.93481 | -15.38529 | 52 ft | 53 kts | 21° |
| 2026-05-01 12:34 | 27.93775 | -15.38423 | 54 ft | 28 kts | 6° |
| 2026-05-01 12:35 | 27.93924 | -15.38432 | 52 ft | 10 kts | 349° |
| 2026-05-01 12:35 | 27.93999 | -15.38448 | 50 ft | 12 kts | 350° |
| 2026-05-01 12:35 | 27.94053 | -15.38507 | 49 ft | 11 kts | 296° |
| 2026-05-01 12:35 | 27.94079 | -15.38589 | 48 ft | 10 kts | 273° |
| 2026-05-01 12:36 | 27.94039 | -15.38640 | 49 ft | 8 kts | 204° |
| 2026-05-01 12:36 | 27.93993 | -15.38660 | 49 ft | 6 kts | 201° |
| 2026-05-01 12:36 | 27.93953 | -15.38678 | 50 ft | 5 kts | 201° |
| 2026-05-01 12:36 | 27.93922 | -15.38700 | 51 ft | 5 kts | 243° |
| 2026-05-01 12:37 | 27.93930 | -15.38735 | 51 ft | 4 kts | 296° |
| 2026-05-01 12:37 | 27.93941 | -15.38763 | 50 ft | 3 kts | 292° |
| 2026-05-01 12:37 | 27.93944 | -15.38773 | 50 ft | 0 kts | 291° |